Time;durP1;ratioP1;P1;durP2;ratioP2;P2;SDS_P1;SDS_P2;PMS_P1;PMS_P2;Temp;Humidity;BMP_temperature;BMP_pressure;BME280_temperature;BME280_humidity;BME280_pressure;Samples;Min_cycle;Max_cycle;Signal;HPM_P1;HPM_P2
2022/01/17 00:00:24;;;;;;;0.38;0.38;;;;;;;;;;4992044;28;20030;-74
2022/01/17 00:02:51;;;;;;;0.55;0.55;;;;;;;;;;4984847;28;20082;-75
2022/01/17 00:05:17;;;;;;;1.52;1.40;;;;;;;;;;4981315;28;20708;-74
2022/01/17 00:07:43;;;;;;;0.30;0.30;;;;;;;;;;4994503;28;20030;-74
2022/01/17 00:10:10;;;;;;;0.98;0.98;;;;;;;;;;4978232;28;20030;-73
2022/01/17 00:12:43;;;;;;;0.40;0.40;;;;;;;;;;4978051;28;20038;-73
2022/01/17 00:15:16;;;;;;;1.42;1.33;;;;;;;;;;4988664;28;20627;-74
2022/01/17 00:17:45;;;;;;;1.45;0.82;;;;;;;;;;4982354;28;20035;-73
2022/01/17 00:20:14;;;;;;;1.17;0.95;;;;;;;;;;4987203;28;20497;-74
2022/01/17 00:22:40;;;;;;;0.93;0.93;;;;;;;;;;4984768;28;20100;-74
2022/01/17 00:25:07;;;;;;;1.08;0.98;;;;;;;;;;4982832;28;20466;-73
2022/01/17 00:27:33;;;;;;;4.47;3.22;;;;;;;;;;4980979;28;20030;-73
2022/01/17 00:30:02;;;;;;;1.17;0.65;;;;;;;;;;4981793;28;20022;-73
2022/01/17 00:32:29;;;;;;;0.57;0.57;;;;;;;;;;4989366;28;20045;-73
2022/01/17 00:34:54;;;;;;;0.10;0.10;;;;;;;;;;4993815;28;20758;-74
2022/01/17 00:37:20;;;;;;;4.88;1.35;;;;;;;;;;4982223;28;20053;-74
2022/01/17 00:39:46;;;;;;;3.00;0.85;;;;;;;;;;4994715;28;20460;-74
2022/01/17 00:42:12;;;;;;;2.20;1.58;;;;;;;;;;4983917;28;20395;-73
2022/01/17 00:44:38;;;;;;;0.57;0.57;;;;;;;;;;4983638;28;20088;-73
2022/01/17 00:47:05;;;;;;;0.60;0.60;;;;;;;;;;4988053;28;20489;-74
2022/01/17 00:49:31;;;;;;;0.15;0.15;;;;;;;;;;4985408;28;20026;-74
2022/01/17 00:51:57;;;;;;;0.57;0.57;;;;;;;;;;4985145;28;20022;-74
2022/01/17 00:54:23;;;;;;;0.10;0.10;;;;;;;;;;4987652;28;20102;-74
2022/01/17 00:56:49;;;;;;;0.22;0.22;;;;;;;;;;4996823;28;20543;-74
2022/01/17 00:59:15;;;;;;;0.28;0.28;;;;;;;;;;4987431;28;20058;-74
2022/01/17 01:01:41;;;;;;;0.20;0.20;;;;;;;;;;4989364;28;20066;-74
2022/01/17 01:04:07;;;;;;;0.47;0.47;;;;;;;;;;4984630;28;20027;-74
2022/01/17 01:06:36;;;;;;;0.55;0.50;;;;;;;;;;4981470;28;20484;-74
2022/01/17 01:09:02;;;;;;;1.85;1.75;;;;;;;;;;4988123;28;20737;-74
2022/01/17 01:11:28;;;;;;;0.10;0.10;;;;;;;;;;4990131;28;20026;-74
2022/01/17 01:13:53;;;;;;;1.85;1.65;;;;;;;;;;4993103;28;20082;-74
2022/01/17 01:29:16;;;;;;;0.55;0.55;;;;;;;;;;4982520;28;20078;-74
2022/01/17 01:31:48;;;;;;;0.10;0.10;;;;;;;;;;4987198;28;20034;-73
2022/01/17 01:34:15;;;;;;;0.63;0.63;;;;;;;;;;4984567;28;20135;-74
2022/01/17 01:36:41;;;;;;;8.55;3.15;;;;;;;;;;4986729;28;20049;-74
2022/01/17 01:39:08;;;;;;;0.50;0.50;;;;;;;;;;5003710;28;20049;-74
2022/01/17 01:41:41;;;;;;;0.38;0.38;;;;;;;;;;4992850;28;20143;-74
2022/01/17 01:44:14;;;;;;;0.30;0.30;;;;;;;;;;4989948;28;20036;-74
2022/01/17 01:46:40;;;;;;;0.45;0.45;;;;;;;;;;4988820;28;20034;-74
2022/01/17 01:49:07;;;;;;;0.10;0.10;;;;;;;;;;4989397;28;20322;-74
2022/01/17 01:51:33;;;;;;;5.53;0.98;;;;;;;;;;4988379;28;20022;-74
2022/01/17 01:53:58;;;;;;;0.50;0.50;;;;;;;;;;4990192;28;20018;-74
2022/01/17 01:56:24;;;;;;;0.38;0.38;;;;;;;;;;4992104;28;20026;-74
2022/01/17 01:58:50;;;;;;;0.50;0.50;;;;;;;;;;4990612;28;20039;-74
2022/01/17 02:01:16;;;;;;;0.00;0.00;;;;;;;;;;4992094;28;20065;-74
2022/01/17 02:03:42;;;;;;;1.10;0.50;;;;;;;;;;4981069;28;20617;-74
2022/01/17 02:06:08;;;;;;;0.08;0.08;;;;;;;;;;4992740;28;20520;-74
2022/01/17 02:08:34;;;;;;;0.10;0.10;;;;;;;;;;4994778;28;20501;-74
2022/01/17 02:11:00;;;;;;;0.45;0.45;;;;;;;;;;4980990;28;20083;-74
2022/01/17 02:13:26;;;;;;;0.00;0.00;;;;;;;;;;4990548;28;20108;-74
2022/01/17 02:16:00;;;;;;;0.28;0.28;;;;;;;;;;4986201;28;20030;-74
2022/01/17 02:18:31;;;;;;;0.10;0.10;;;;;;;;;;4990566;28;20733;-74
2022/01/17 02:21:20;;;;;;;0.10;0.10;;;;;;;;;;4986972;28;20045;-74
2022/01/17 02:23:52;;;;;;;0.03;0.03;;;;;;;;;;4987572;28;20049;-73
2022/01/17 02:26:20;;;;;;;0.28;0.28;;;;;;;;;;4994029;28;20046;-74
2022/01/17 02:28:46;;;;;;;2.95;0.55;;;;;;;;;;4988313;28;20014;-74
2022/01/17 02:31:12;;;;;;;0.30;0.30;;;;;;;;;;4986579;28;20027;-73
2022/01/17 02:33:38;;;;;;;0.95;0.95;;;;;;;;;;4994181;28;20626;-75
2022/01/17 02:36:04;;;;;;;0.40;0.40;;;;;;;;;;4983527;28;20061;-74
2022/01/17 02:38:31;;;;;;;0.10;0.10;;;;;;;;;;4980486;28;20389;-73
2022/01/17 02:40:57;;;;;;;0.40;0.40;;;;;;;;;;4985159;28;20571;-74
2022/01/17 02:43:24;;;;;;;0.50;0.50;;;;;;;;;;4994170;28;20030;-74
2022/01/17 02:48:17;;;;;;;1.70;0.57;;;;;;;;;;4989897;28;20449;-74
2022/01/17 02:50:43;;;;;;;0.10;0.10;;;;;;;;;;4989034;28;20735;-74
2022/01/17 02:53:09;;;;;;;0.22;0.20;;;;;;;;;;4986412;28;20026;-74
2022/01/17 02:55:36;;;;;;;0.08;0.08;;;;;;;;;;4994098;28;20113;-74
2022/01/17 02:58:03;;;;;;;0.17;0.17;;;;;;;;;;4985529;28;20039;-74
2022/01/17 03:00:29;;;;;;;0.20;0.20;;;;;;;;;;4979696;28;20038;-73
2022/01/17 03:02:54;;;;;;;0.10;0.10;;;;;;;;;;4990421;28;20026;-74
2022/01/17 03:05:21;;;;;;;0.13;0.13;;;;;;;;;;4990043;28;20054;-73
2022/01/17 03:07:48;;;;;;;0.08;0.08;;;;;;;;;;4979976;28;20037;-74
2022/01/17 03:10:35;;;;;;;0.08;0.08;;;;;;;;;;4982261;28;20015;-74
2022/01/17 03:13:02;;;;;;;0.10;0.10;;;;;;;;;;4980313;28;20026;-74
2022/01/17 03:15:28;;;;;;;0.10;0.10;;;;;;;;;;4983701;28;20042;-73
2022/01/17 03:17:55;;;;;;;0.47;0.30;;;;;;;;;;4984065;28;20474;-74
2022/01/17 03:20:21;;;;;;;0.00;0.00;;;;;;;;;;4989007;28;20647;-73
2022/01/17 03:22:46;;;;;;;0.28;0.28;;;;;;;;;;4995360;28;20049;-74
2022/01/17 03:25:12;;;;;;;0.10;0.10;;;;;;;;;;4987404;28;20113;-74
2022/01/17 03:27:38;;;;;;;0.77;0.77;;;;;;;;;;4989341;28;20037;-74
2022/01/17 03:30:05;;;;;;;0.10;0.10;;;;;;;;;;4986715;28;20061;-74
2022/01/17 03:32:31;;;;;;;0.10;0.10;;;;;;;;;;4988769;28;20083;-73
2022/01/17 03:34:57;;;;;;;0.25;0.25;;;;;;;;;;4986701;28;20038;-74
2022/01/17 03:37:23;;;;;;;1.55;1.08;;;;;;;;;;4980990;28;20113;-74
2022/01/17 03:39:49;;;;;;;0.03;0.03;;;;;;;;;;4983865;28;20022;-74
2022/01/17 03:42:15;;;;;;;0.10;0.10;;;;;;;;;;4981177;28;20053;-74
2022/01/17 03:44:41;;;;;;;0.10;0.10;;;;;;;;;;4984233;28;20081;-73
2022/01/17 03:47:07;;;;;;;7.57;2.40;;;;;;;;;;4989386;28;20061;-74
2022/01/17 03:49:33;;;;;;;0.25;0.25;;;;;;;;;;4982400;28;20030;-74
2022/01/17 03:51:59;;;;;;;4.38;0.98;;;;;;;;;;4980960;28;20173;-74
2022/01/17 03:54:25;;;;;;;0.20;0.20;;;;;;;;;;4982238;28;20120;-74
2022/01/17 03:56:51;;;;;;;0.00;0.00;;;;;;;;;;4980822;28;20107;-73
2022/01/17 03:59:17;;;;;;;1.67;1.55;;;;;;;;;;4983691;28;20038;-74
2022/01/17 04:01:42;;;;;;;0.00;0.00;;;;;;;;;;4986506;28;20022;-74
2022/01/17 04:04:08;;;;;;;1.25;0.85;;;;;;;;;;4983588;28;20489;-73
2022/01/17 04:06:35;;;;;;;0.10;0.10;;;;;;;;;;4987052;28;20121;-74
2022/01/17 04:09:01;;;;;;;0.10;0.10;;;;;;;;;;4978305;28;20022;-74
2022/01/17 04:11:27;;;;;;;0.50;0.50;;;;;;;;;;4988194;28;20037;-74
2022/01/17 04:13:53;;;;;;;0.28;0.28;;;;;;;;;;4988991;28;20093;-74
2022/01/17 04:16:19;;;;;;;0.10;0.10;;;;;;;;;;4988861;28;20042;-73
2022/01/17 04:18:44;;;;;;;0.10;0.10;;;;;;;;;;4983464;28;20047;-74
2022/01/17 04:21:11;;;;;;;0.10;0.10;;;;;;;;;;4987449;28;20028;-75
2022/01/17 04:23:36;;;;;;;0.10;0.10;;;;;;;;;;4990298;28;20030;-74
2022/01/17 04:26:03;;;;;;;2.05;0.98;;;;;;;;;;4980934;28;20110;-74
2022/01/17 04:28:28;;;;;;;0.00;0.00;;;;;;;;;;4985362;28;20504;-74
2022/01/17 04:30:54;;;;;;;0.03;0.03;;;;;;;;;;4982988;28;20046;-74
2022/01/17 04:33:20;;;;;;;0.00;0.00;;;;;;;;;;4980433;28;20034;-73
2022/01/17 04:35:46;;;;;;;0.10;0.10;;;;;;;;;;4988528;28;20038;-74
2022/01/17 04:38:17;;;;;;;0.10;0.10;;;;;;;;;;4992773;28;20026;-74
2022/01/17 04:40:45;;;;;;;0.50;0.50;;;;;;;;;;4988059;28;20122;-74
2022/01/17 04:43:43;;;;;;;2.17;1.65;;;;;;;;;;4984618;28;20026;-74
2022/01/17 04:46:08;;;;;;;0.00;0.00;;;;;;;;;;4983696;28;20038;-74
2022/01/17 04:48:34;;;;;;;2.00;1.55;;;;;;;;;;4993160;28;20081;-74
2022/01/17 04:51:00;;;;;;;0.85;0.85;;;;;;;;;;4986201;28;20026;-74
2022/01/17 04:53:27;;;;;;;0.10;0.10;;;;;;;;;;4982844;28;20551;-74
2022/01/17 04:55:53;;;;;;;0.08;0.08;;;;;;;;;;4989797;28;20042;-73
2022/01/17 04:58:18;;;;;;;0.10;0.10;;;;;;;;;;4992374;28;20037;-74
2022/01/17 05:00:48;;;;;;;0.00;0.00;;;;;;;;;;4989704;28;20041;-74
2022/01/17 05:03:15;;;;;;;0.32;0.32;;;;;;;;;;4988562;28;20118;-74
2022/01/17 05:05:41;;;;;;;0.22;0.22;;;;;;;;;;4994999;28;20041;-73
2022/01/17 05:08:07;;;;;;;0.68;0.52;;;;;;;;;;4990040;28;20018;-74
2022/01/17 05:10:33;;;;;;;0.00;0.00;;;;;;;;;;4988946;28;20030;-73
2022/01/17 05:12:59;;;;;;;0.52;0.25;;;;;;;;;;4984806;28;20125;-75
2022/01/17 05:20:35;;;;;;;0.00;0.00;;;;;;;;;;4994916;28;20513;-75
2022/01/17 05:23:01;;;;;;;0.75;0.75;;;;;;;;;;4990269;28;20041;-75
2022/01/17 05:25:27;;;;;;;0.20;0.20;;;;;;;;;;4987621;28;20030;-75
2022/01/17 05:27:53;;;;;;;0.20;0.20;;;;;;;;;;4994558;28;20089;-75
2022/01/17 05:30:20;;;;;;;0.20;0.20;;;;;;;;;;4994400;28;20080;-75
2022/01/17 05:32:47;;;;;;;0.10;0.10;;;;;;;;;;4995942;28;20126;-74
2022/01/17 05:35:13;;;;;;;0.10;0.10;;;;;;;;;;4995196;28;20117;-74
2022/01/17 05:37:39;;;;;;;0.30;0.30;;;;;;;;;;4996195;28;20215;-74
2022/01/17 05:40:09;;;;;;;0.08;0.08;;;;;;;;;;4996564;28;20033;-74
2022/01/17 05:42:35;;;;;;;0.10;0.10;;;;;;;;;;4994806;28;20398;-74
2022/01/17 05:45:01;;;;;;;0.00;0.00;;;;;;;;;;4995217;28;20035;-74
2022/01/17 05:47:27;;;;;;;0.00;0.00;;;;;;;;;;4995854;28;20050;-74
2022/01/17 05:49:53;;;;;;;0.10;0.10;;;;;;;;;;4993577;28;20030;-75
2022/01/17 05:52:19;;;;;;;0.10;0.10;;;;;;;;;;4995747;28;20400;-75
2022/01/17 05:54:45;;;;;;;0.00;0.00;;;;;;;;;;4997388;28;20046;-75
2022/01/17 05:57:11;;;;;;;0.05;0.05;;;;;;;;;;4995682;28;20465;-74
2022/01/17 05:59:37;;;;;;;0.00;0.00;;;;;;;;;;4995720;28;20038;-75
2022/01/17 06:02:03;;;;;;;0.10;0.10;;;;;;;;;;4990588;28;20037;-75
2022/01/17 06:04:29;;;;;;;0.50;0.50;;;;;;;;;;4995497;28;20115;-75
2022/01/17 06:06:55;;;;;;;0.47;0.47;;;;;;;;;;4995248;28;20057;-75
2022/01/17 06:09:21;;;;;;;0.10;0.10;;;;;;;;;;4991573;28;20110;-75
2022/01/17 06:11:47;;;;;;;2.38;0.90;;;;;;;;;;4987360;28;20037;-75
2022/01/17 06:14:17;;;;;;;1.65;1.55;;;;;;;;;;4991653;28;20073;-75
2022/01/17 06:16:43;;;;;;;0.30;0.30;;;;;;;;;;4990886;28;20786;-75
2022/01/17 06:19:09;;;;;;;0.25;0.20;;;;;;;;;;4992410;28;20385;-75
2022/01/17 06:21:35;;;;;;;0.00;0.00;;;;;;;;;;4988485;28;20026;-75
2022/01/17 06:24:02;;;;;;;0.03;0.03;;;;;;;;;;4992894;28;20038;-74
2022/01/17 06:26:28;;;;;;;0.00;0.00;;;;;;;;;;4995812;28;20026;-75
2022/01/17 06:28:54;;;;;;;0.20;0.20;;;;;;;;;;4992487;28;20034;-75
2022/01/17 06:31:20;;;;;;;0.10;0.10;;;;;;;;;;4992695;28;20090;-75
2022/01/17 06:33:46;;;;;;;0.40;0.40;;;;;;;;;;4991207;28;20038;-75
2022/01/17 06:36:12;;;;;;;0.00;0.00;;;;;;;;;;4993851;28;20085;-75
2022/01/17 06:38:38;;;;;;;0.45;0.45;;;;;;;;;;4994414;28;20050;-75
2022/01/17 06:41:04;;;;;;;0.65;0.63;;;;;;;;;;4992378;28;20034;-74
2022/01/17 06:43:30;;;;;;;0.00;0.00;;;;;;;;;;4991374;28;20021;-75
2022/01/17 06:45:56;;;;;;;0.00;0.00;;;;;;;;;;4994047;28;20034;-75
2022/01/17 06:48:22;;;;;;;0.00;0.00;;;;;;;;;;4994091;28;20128;-74
2022/01/17 06:50:48;;;;;;;0.05;0.05;;;;;;;;;;4991590;28;20085;-74
2022/01/17 06:53:14;;;;;;;0.10;0.10;;;;;;;;;;4996446;28;20029;-75
2022/01/17 06:55:40;;;;;;;8.00;3.33;;;;;;;;;;4992496;28;20388;-74
2022/01/17 06:58:05;;;;;;;0.10;0.10;;;;;;;;;;4992069;28;20503;-74
2022/01/17 07:00:31;;;;;;;0.35;0.35;;;;;;;;;;4993923;28;20036;-74
2022/01/17 07:02:57;;;;;;;0.10;0.10;;;;;;;;;;4995394;28;20436;-74
2022/01/17 07:05:23;;;;;;;7.72;1.65;;;;;;;;;;4993068;28;20581;-75
2022/01/17 07:07:49;;;;;;;0.13;0.13;;;;;;;;;;4996208;28;20022;-74
2022/01/17 07:10:15;;;;;;;0.10;0.10;;;;;;;;;;4993769;28;20474;-73
2022/01/17 07:12:41;;;;;;;0.00;0.00;;;;;;;;;;4994725;28;20027;-73
2022/01/17 07:15:08;;;;;;;0.00;0.00;;;;;;;;;;4994050;28;20440;-74
2022/01/17 07:17:34;;;;;;;0.32;0.15;;;;;;;;;;4993534;28;20189;-74
2022/01/17 07:20:00;;;;;;;0.10;0.10;;;;;;;;;;4992842;28;20477;-74
2022/01/17 07:22:27;;;;;;;0.10;0.10;;;;;;;;;;4994609;28;20026;-74
2022/01/17 07:24:54;;;;;;;0.10;0.10;;;;;;;;;;4995757;28;20037;-74
2022/01/17 07:27:20;;;;;;;0.03;0.03;;;;;;;;;;4994191;28;20026;-74
2022/01/17 07:29:46;;;;;;;0.00;0.00;;;;;;;;;;4992353;28;20034;-74
2022/01/17 07:32:12;;;;;;;0.30;0.30;;;;;;;;;;4994315;28;20038;-75
2022/01/17 07:34:38;;;;;;;0.00;0.00;;;;;;;;;;4992773;28;20084;-74
2022/01/17 07:37:04;;;;;;;0.00;0.00;;;;;;;;;;4993272;28;20034;-74
2022/01/17 07:39:30;;;;;;;0.05;0.05;;;;;;;;;;4992229;28;20544;-76
2022/01/17 07:41:56;;;;;;;0.10;0.10;;;;;;;;;;4988081;28;20165;-77
2022/01/17 07:44:24;;;;;;;0.20;0.20;;;;;;;;;;4983204;28;20392;-76
2022/01/17 07:46:55;;;;;;;0.05;0.05;;;;;;;;;;4983356;28;20038;-76
2022/01/17 07:49:21;;;;;;;1.25;0.47;;;;;;;;;;4985183;28;20054;-75
2022/01/17 07:51:58;;;;;;;0.00;0.00;;;;;;;;;;4983584;28;20037;-75
2022/01/17 07:54:25;;;;;;;0.00;0.00;;;;;;;;;;4985086;28;20030;-76
2022/01/17 07:56:51;;;;;;;0.40;0.40;;;;;;;;;;4990816;28;20022;-76
2022/01/17 07:59:17;;;;;;;0.10;0.10;;;;;;;;;;4985673;28;20508;-75
2022/01/17 08:01:43;;;;;;;0.05;0.05;;;;;;;;;;4987045;28;20046;-74
2022/01/17 08:04:10;;;;;;;2.50;1.20;;;;;;;;;;4998081;28;20033;-74
2022/01/17 08:06:38;;;;;;;0.05;0.05;;;;;;;;;;4980892;28;20026;-74
2022/01/17 08:09:09;;;;;;;0.10;0.10;;;;;;;;;;4990584;28;20073;-75
2022/01/17 08:11:35;;;;;;;0.10;0.10;;;;;;;;;;4991843;28;20036;-75
2022/01/17 08:14:01;;;;;;;0.10;0.10;;;;;;;;;;5000698;28;20033;-74
2022/01/17 08:16:27;;;;;;;0.10;0.10;;;;;;;;;;4989971;28;20436;-75
2022/01/17 08:18:53;;;;;;;0.20;0.20;;;;;;;;;;4986324;28;20034;-74
2022/01/17 08:21:19;;;;;;;0.10;0.10;;;;;;;;;;4991052;28;20033;-74
2022/01/17 08:23:45;;;;;;;0.00;0.00;;;;;;;;;;4989330;28;20026;-74
2022/01/17 08:26:11;;;;;;;0.20;0.20;;;;;;;;;;4990291;28;20546;-74
2022/01/17 08:28:37;;;;;;;0.30;0.28;;;;;;;;;;4989588;28;20035;-74
2022/01/17 08:31:03;;;;;;;0.00;0.00;;;;;;;;;;4982560;28;20777;-75
2022/01/17 08:33:29;;;;;;;0.73;0.28;;;;;;;;;;4990546;28;20129;-73
2022/01/17 08:35:55;;;;;;;0.10;0.10;;;;;;;;;;4991106;28;20120;-74
2022/01/17 08:38:23;;;;;;;0.05;0.05;;;;;;;;;;4996203;28;20026;-75
2022/01/17 08:40:49;;;;;;;0.20;0.20;;;;;;;;;;4982022;28;20026;-74
2022/01/17 08:43:15;;;;;;;0.68;0.68;;;;;;;;;;4982407;28;20044;-74
2022/01/17 08:45:41;;;;;;;0.08;0.08;;;;;;;;;;4990959;28;20033;-73
2022/01/17 08:48:07;;;;;;;0.00;0.00;;;;;;;;;;4970574;28;20053;-74
2022/01/17 08:50:33;;;;;;;0.03;0.03;;;;;;;;;;4978116;28;20510;-73
2022/01/17 08:52:59;;;;;;;0.10;0.10;;;;;;;;;;4964682;28;20061;-74
2022/01/17 08:55:25;;;;;;;1.35;0.65;;;;;;;;;;4979453;28;20049;-75
2022/01/17 08:57:51;;;;;;;0.10;0.10;;;;;;;;;;4970827;28;20026;-75
2022/01/17 09:00:26;;;;;;;0.03;0.03;;;;;;;;;;4965864;28;20482;-76
2022/01/17 09:02:52;;;;;;;0.00;0.00;;;;;;;;;;4971502;28;20034;-74
2022/01/17 09:05:18;;;;;;;0.10;0.10;;;;;;;;;;4964950;28;20621;-73
2022/01/17 09:07:44;;;;;;;3.10;1.55;;;;;;;;;;4962459;28;20049;-74
2022/01/17 09:10:10;;;;;;;0.03;0.03;;;;;;;;;;4961762;28;20047;-74
2022/01/17 09:12:36;;;;;;;0.00;0.00;;;;;;;;;;4966021;28;20046;-74
2022/01/17 09:15:02;;;;;;;0.05;0.05;;;;;;;;;;4964122;28;20053;-73
2022/01/17 09:17:28;;;;;;;0.00;0.00;;;;;;;;;;4965813;28;20023;-74
2022/01/17 09:19:54;;;;;;;0.03;0.03;;;;;;;;;;4982157;28;20071;-74
2022/01/17 09:22:20;;;;;;;0.00;0.00;;;;;;;;;;4973282;28;20023;-75
2022/01/17 09:24:46;;;;;;;0.25;0.25;;;;;;;;;;4970851;28;20034;-83
2022/01/17 09:27:15;;;;;;;0.05;0.05;;;;;;;;;;4975702;28;20030;-75
2022/01/17 09:29:41;;;;;;;0.05;0.05;;;;;;;;;;4965075;28;20026;-74
2022/01/17 09:32:11;;;;;;;0.38;0.38;;;;;;;;;;4965733;28;20026;-74
2022/01/17 09:34:37;;;;;;;0.10;0.10;;;;;;;;;;4970282;28;20150;-74
2022/01/17 09:37:03;;;;;;;0.32;0.32;;;;;;;;;;4969712;28;20034;-74
2022/01/17 09:39:29;;;;;;;0.00;0.00;;;;;;;;;;4963792;28;20037;-74
2022/01/17 09:41:58;;;;;;;0.00;0.00;;;;;;;;;;4964019;28;20118;-76
2022/01/17 09:44:27;;;;;;;0.03;0.03;;;;;;;;;;4981170;28;20042;-75
2022/01/17 09:46:56;;;;;;;0.10;0.10;;;;;;;;;;4972700;28;20053;-74
2022/01/17 09:49:38;;;;;;;0.00;0.00;;;;;;;;;;4970635;28;20053;-73
2022/01/17 09:52:33;;;;;;;0.00;0.00;;;;;;;;;;4986604;28;20045;-75
2022/01/17 09:55:02;;;;;;;0.10;0.10;;;;;;;;;;4987029;28;20039;-73
2022/01/17 09:57:29;;;;;;;0.17;0.17;;;;;;;;;;4992197;28;20551;-73
2022/01/17 09:59:55;;;;;;;0.10;0.10;;;;;;;;;;4987959;28;20110;-74
2022/01/17 10:02:21;;;;;;;0.00;0.00;;;;;;;;;;4984757;28;20125;-73
2022/01/17 10:04:46;;;;;;;0.25;0.25;;;;;;;;;;4988852;28;20250;-72
2022/01/17 10:07:12;;;;;;;0.03;0.03;;;;;;;;;;4995577;28;20030;-75
2022/01/17 10:09:43;;;;;;;0.77;0.77;;;;;;;;;;4984804;28;20385;-74
2022/01/17 10:12:13;;;;;;;0.00;0.00;;;;;;;;;;4988913;28;20797;-74
2022/01/17 10:14:42;;;;;;;0.10;0.10;;;;;;;;;;4969514;28;20038;-72
2022/01/17 10:17:15;;;;;;;1.45;1.02;;;;;;;;;;4973225;28;20033;-73
2022/01/17 10:19:42;;;;;;;0.00;0.00;;;;;;;;;;4992009;28;20084;-74
2022/01/17 10:22:14;;;;;;;0.43;0.32;;;;;;;;;;4988152;28;20025;-73
2022/01/17 10:24:53;;;;;;;0.00;0.00;;;;;;;;;;4981547;28;20038;-74
2022/01/17 10:27:41;;;;;;;0.65;0.63;;;;;;;;;;4980889;28;20037;-77
2022/01/17 10:35:59;;;;;;;1.02;0.47;;;;;;;;;;4975131;28;20088;-74
2022/01/17 10:38:27;;;;;;;0.10;0.10;;;;;;;;;;4983395;28;20113;-74
2022/01/17 10:40:53;;;;;;;0.10;0.10;;;;;;;;;;4983968;28;20378;-75
2022/01/17 10:43:21;;;;;;;0.10;0.10;;;;;;;;;;4982132;28;20126;-74
2022/01/17 10:45:47;;;;;;;0.13;0.13;;;;;;;;;;4981691;28;20024;-74
2022/01/17 10:48:15;;;;;;;0.05;0.05;;;;;;;;;;4986904;28;20055;-73
2022/01/17 10:50:45;;;;;;;0.00;0.00;;;;;;;;;;4982606;28;20444;-73
2022/01/17 10:53:12;;;;;;;0.00;0.00;;;;;;;;;;4992485;28;20405;-73
2022/01/17 10:55:40;;;;;;;0.00;0.00;;;;;;;;;;4986802;28;20457;-73
2022/01/17 10:58:10;;;;;;;0.10;0.10;;;;;;;;;;4985881;28;20064;-73
2022/01/17 11:00:40;;;;;;;0.25;0.25;;;;;;;;;;4976568;28;20065;-75
2022/01/17 11:03:08;;;;;;;0.10;0.10;;;;;;;;;;4974326;28;20085;-76
2022/01/17 11:05:38;;;;;;;0.00;0.00;;;;;;;;;;4984882;28;20113;-78
2022/01/17 11:08:08;;;;;;;0.00;0.00;;;;;;;;;;4983606;28;20129;-75
2022/01/17 11:10:41;;;;;;;17.35;1.75;;;;;;;;;;4988601;28;20030;-76
2022/01/17 11:13:09;;;;;;;0.10;0.10;;;;;;;;;;4984619;28;20041;-75
2022/01/17 11:15:36;;;;;;;0.08;0.08;;;;;;;;;;4982755;28;20803;-75
2022/01/17 11:18:18;;;;;;;0.00;0.00;;;;;;;;;;4965549;28;20028;-76
2022/01/17 11:20:45;;;;;;;0.08;0.08;;;;;;;;;;4980755;28;20022;-76
2022/01/17 11:23:11;;;;;;;0.00;0.00;;;;;;;;;;4989700;28;20085;-75
2022/01/17 11:25:41;;;;;;;0.00;0.00;;;;;;;;;;4982341;28;20057;-75
2022/01/17 11:28:08;;;;;;;0.00;0.00;;;;;;;;;;4990262;28;20030;-75
2022/01/17 11:30:34;;;;;;;4.13;1.75;;;;;;;;;;4986742;28;20030;-75
2022/01/17 11:33:04;;;;;;;3.90;1.27;;;;;;;;;;4989496;28;20060;-75
2022/01/17 11:35:30;;;;;;;0.00;0.00;;;;;;;;;;4985183;28;20022;-75
2022/01/17 11:37:58;;;;;;;0.57;0.57;;;;;;;;;;4987949;28;20026;-75
2022/01/17 11:40:35;;;;;;;0.00;0.00;;;;;;;;;;4980490;28;20045;-75
2022/01/17 11:43:15;;;;;;;0.10;0.10;;;;;;;;;;4985069;28;20081;-76
2022/01/17 11:45:42;;;;;;;0.30;0.30;;;;;;;;;;4999974;28;20034;-75
2022/01/17 11:48:16;;;;;;;0.00;0.00;;;;;;;;;;4988657;28;20034;-76
2022/01/17 11:50:44;;;;;;;0.10;0.10;;;;;;;;;;4980722;28;20022;-75
2022/01/17 11:53:10;;;;;;;0.03;0.03;;;;;;;;;;4982138;28;20034;-76
2022/01/17 11:55:42;;;;;;;0.00;0.00;;;;;;;;;;4990039;28;20485;-76
2022/01/17 11:58:21;;;;;;;0.00;0.00;;;;;;;;;;4987393;28;20034;-75
2022/01/17 12:00:47;;;;;;;0.10;0.10;;;;;;;;;;4985623;28;20023;-75
2022/01/17 12:03:18;;;;;;;0.35;0.35;;;;;;;;;;4987797;28;20038;-76
2022/01/17 12:05:44;;;;;;;0.00;0.00;;;;;;;;;;4986682;28;20065;-75
2022/01/17 12:08:10;;;;;;;0.57;0.57;;;;;;;;;;4989627;28;20074;-75
2022/01/17 12:10:47;;;;;;;0.28;0.28;;;;;;;;;;4985249;28;20023;-75
2022/01/17 12:13:21;;;;;;;0.10;0.10;;;;;;;;;;4987288;28;20030;-76
2022/01/17 12:15:58;;;;;;;0.00;0.00;;;;;;;;;;4985863;28;20493;-75
2022/01/17 12:18:30;;;;;;;0.00;0.00;;;;;;;;;;4986880;28;20113;-75
2022/01/17 12:20:56;;;;;;;0.65;0.65;;;;;;;;;;4982380;28;20033;-76
2022/01/17 12:23:24;;;;;;;0.20;0.20;;;;;;;;;;4983743;28;20034;-76
2022/01/17 12:25:50;;;;;;;0.03;0.03;;;;;;;;;;4985040;28;20026;-76
2022/01/17 12:28:19;;;;;;;0.10;0.10;;;;;;;;;;4974587;28;20018;-76
2022/01/17 12:30:47;;;;;;;0.20;0.20;;;;;;;;;;4983653;28;20481;-76
2022/01/17 12:33:14;;;;;;;0.10;0.10;;;;;;;;;;4982158;28;20432;-76
2022/01/17 12:35:46;;;;;;;0.28;0.28;;;;;;;;;;4982967;28;20030;-75
2022/01/17 12:38:15;;;;;;;0.10;0.10;;;;;;;;;;4983366;28;20341;-76
2022/01/17 12:40:43;;;;;;;0.10;0.10;;;;;;;;;;4987805;28;20034;-75
2022/01/17 12:43:13;;;;;;;0.10;0.10;;;;;;;;;;4982938;28;20050;-76
2022/01/17 12:45:40;;;;;;;0.00;0.00;;;;;;;;;;4980979;28;20111;-75
2022/01/17 12:48:09;;;;;;;0.00;0.00;;;;;;;;;;4986168;28;20053;-75
2022/01/17 12:50:36;;;;;;;0.00;0.00;;;;;;;;;;4992590;28;20058;-75
2022/01/17 12:53:03;;;;;;;0.00;0.00;;;;;;;;;;4984477;28;20161;-75
2022/01/17 12:55:33;;;;;;;0.22;0.22;;;;;;;;;;4986487;28;20084;-76
2022/01/17 12:57:59;;;;;;;0.73;0.73;;;;;;;;;;4990121;28;20393;-75
2022/01/17 13:00:28;;;;;;;0.00;0.00;;;;;;;;;;4993505;28;20041;-75
2022/01/17 13:02:56;;;;;;;0.10;0.10;;;;;;;;;;4979118;28;20031;-75
2022/01/17 13:05:24;;;;;;;0.00;0.00;;;;;;;;;;4996126;28;20097;-76
2022/01/17 13:07:50;;;;;;;0.10;0.10;;;;;;;;;;4984170;28;20492;-75
2022/01/17 13:10:16;;;;;;;0.40;0.40;;;;;;;;;;4989079;28;20033;-75
2022/01/17 13:12:42;;;;;;;0.43;0.30;;;;;;;;;;4991141;28;20113;-76
2022/01/17 13:15:10;;;;;;;0.00;0.00;;;;;;;;;;4968063;28;20491;-75
2022/01/17 13:18:08;;;;;;;0.10;0.10;;;;;;;;;;4988160;28;20499;-76
2022/01/17 13:20:37;;;;;;;0.00;0.00;;;;;;;;;;4992116;28;20033;-75
2022/01/17 13:23:12;;;;;;;0.28;0.20;;;;;;;;;;4987666;28;20029;-76
2022/01/17 13:25:38;;;;;;;0.00;0.00;;;;;;;;;;4989133;28;20049;-75
2022/01/17 13:28:04;;;;;;;0.10;0.10;;;;;;;;;;4988740;28;20501;-75
2022/01/17 13:30:34;;;;;;;0.05;0.05;;;;;;;;;;4987197;28;20014;-76
2022/01/17 13:33:04;;;;;;;0.00;0.00;;;;;;;;;;4997660;28;20037;-75
2022/01/17 13:35:30;;;;;;;0.77;0.77;;;;;;;;;;4985705;28;20030;-75
2022/01/17 13:38:10;;;;;;;0.10;0.10;;;;;;;;;;4992730;28;20108;-76
2022/01/17 13:40:36;;;;;;;0.10;0.10;;;;;;;;;;4989848;28;20176;-76
2022/01/17 13:43:03;;;;;;;11.45;1.73;;;;;;;;;;4988752;28;20034;-75
2022/01/17 13:45:29;;;;;;;0.15;0.15;;;;;;;;;;4988972;28;20054;-77
2022/01/17 13:47:56;;;;;;;0.00;0.00;;;;;;;;;;4988779;28;20074;-75
2022/01/17 13:50:22;;;;;;;0.60;0.40;;;;;;;;;;4987743;28;20501;-74
2022/01/17 13:52:51;;;;;;;0.25;0.25;;;;;;;;;;4993460;28;20469;-74
2022/01/17 13:55:37;;;;;;;8.27;2.65;;;;;;;;;;4998475;28;20034;-74
2022/01/17 13:58:05;;;;;;;0.00;0.00;;;;;;;;;;4996680;28;20076;-75
2022/01/17 14:00:41;;;;;;;0.00;0.00;;;;;;;;;;4990100;28;20023;-74
2022/01/17 14:03:08;;;;;;;0.10;0.10;;;;;;;;;;4987226;28;20394;-74
2022/01/17 14:05:41;;;;;;;0.30;0.30;;;;;;;;;;5003336;28;20030;-75
2022/01/17 14:08:13;;;;;;;0.10;0.10;;;;;;;;;;5008932;28;20105;-75
2022/01/17 14:10:39;;;;;;;;;;;;;;;;;;4995039;28;20045;-74
2022/01/17 14:13:06;;;;;;;0.10;0.10;;;;;;;;;;4988036;28;19909;-75
2022/01/17 14:15:33;;;;;;;0.63;0.63;;;;;;;;;;4993208;28;20027;-76
2022/01/17 14:18:06;;;;;;;2.30;1.08;;;;;;;;;;4994907;28;20045;-75
2022/01/17 14:20:32;;;;;;;6.88;1.55;;;;;;;;;;5004875;28;20481;-82
2022/01/17 14:22:58;;;;;;;0.30;0.30;;;;;;;;;;4987268;28;20026;-83
2022/01/17 14:25:25;;;;;;;0.05;0.05;;;;;;;;;;4987108;28;20040;-74
2022/01/17 14:28:01;;;;;;;0.10;0.10;;;;;;;;;;4993219;28;20018;-74
2022/01/17 14:30:32;;;;;;;1.48;1.38;;;;;;;;;;4988212;28;20121;-73
2022/01/17 14:33:08;;;;;;;0.10;0.10;;;;;;;;;;4999533;28;20025;-74
2022/01/17 14:35:34;;;;;;;0.10;0.10;;;;;;;;;;4985851;28;20133;-73
2022/01/17 14:38:00;;;;;;;0.10;0.10;;;;;;;;;;4991284;28;20036;-73
2022/01/17 14:40:31;;;;;;;0.30;0.30;;;;;;;;;;4996084;28;20035;-74
2022/01/17 14:43:09;;;;;;;0.00;0.00;;;;;;;;;;4986236;28;20030;-73
2022/01/17 14:45:38;;;;;;;1.10;0.75;;;;;;;;;;4995454;28;20022;-73
2022/01/17 14:48:13;;;;;;;0.40;0.40;;;;;;;;;;4994610;28;20043;-74
2022/01/17 14:50:39;;;;;;;0.10;0.10;;;;;;;;;;4997425;28;20033;-73
2022/01/17 14:53:12;;;;;;;0.00;0.00;;;;;;;;;;5006252;28;20052;-73
2022/01/17 15:01:16;;;;;;;3.63;1.13;;;;;;;;;;4991295;28;20069;-73
2022/01/17 15:03:42;;;;;;;0.28;0.28;;;;;;;;;;4987658;28;20021;-73
2022/01/17 15:06:09;;;;;;;0.05;0.05;;;;;;;;;;4980009;28;20073;-72
2022/01/17 15:08:35;;;;;;;0.00;0.00;;;;;;;;;;5002667;28;20106;-73
2022/01/17 15:11:01;;;;;;;0.13;0.13;;;;;;;;;;4995421;28;20097;-72
2022/01/17 15:13:27;;;;;;;0.10;0.10;;;;;;;;;;4997904;28;20026;-74
2022/01/17 15:15:53;;;;;;;0.40;0.40;;;;;;;;;;5000489;28;20069;-74
2022/01/17 15:18:19;;;;;;;0.90;0.73;;;;;;;;;;4991860;28;20633;-73